Time;durP1;ratioP1;P1;durP2;ratioP2;P2;SDS_P1;SDS_P2;PMS_P1;PMS_P2;Temp;Humidity;BMP_temperature;BMP_pressure;BME280_temperature;BME280_humidity;BME280_pressure;Samples;Min_cycle;Max_cycle;Signal;HPM_P1;HPM_P2
2022/07/12 04:22:42;;;;;;;7.05;4.22;;;;;;;14.56;98.07;100956.44;5109231;27;20331;-73
2022/07/12 04:25:08;;;;;;;6.22;3.78;;;;;;;14.55;98.12;100954.78;5108102;28;20500;-75
2022/07/12 04:27:34;;;;;;;7.13;4.03;;;;;;;14.56;98.38;100957.28;5109116;28;20110;-74
2022/07/12 04:29:59;;;;;;;6.88;4.03;;;;;;;14.56;98.62;100961.81;5107417;28;20114;-76
2022/07/12 04:32:24;;;;;;;5.45;3.92;;;;;;;14.57;98.34;100964.28;5110003;22;20044;-74
2022/07/12 04:34:50;;;;;;;5.55;3.97;;;;;;;14.63;98.04;100968.09;5088873;28;20048;-73
2022/07/12 04:37:15;;;;;;;8.38;4.70;;;;;;;14.67;97.39;100964.06;5088873;28;20040;-74
2022/07/12 04:39:41;;;;;;;6.90;4.20;;;;;;;14.77;96.77;100969.97;5088649;28;20551;-74
2022/07/12 04:42:06;;;;;;;9.02;4.90;;;;;;;14.85;97.22;100961.81;5098699;28;20046;-74
2022/07/12 04:44:32;;;;;;;5.63;4.50;;;;;;;14.89;96.47;100963.13;5109024;28;20040;-74
2022/07/12 04:46:57;;;;;;;7.97;4.00;;;;;;;14.95;96.35;100960.75;5108965;28;20426;-74
2022/07/12 04:49:23;;;;;;;5.75;4.35;;;;;;;14.99;95.64;100957.47;5108611;28;20032;-74
2022/07/12 04:51:48;;;;;;;6.55;4.13;;;;;;;15.04;95.71;100957.78;5108702;28;20384;-74
2022/07/12 04:54:14;;;;;;;6.65;4.10;;;;;;;15.08;95.56;100955.56;5108844;28;20044;-74
2022/07/12 04:56:40;;;;;;;5.05;3.58;;;;;;;15.17;96.00;100959.81;5108773;28;20035;-74
2022/07/12 04:59:05;;;;;;;6.40;4.00;;;;;;;15.24;94.76;100965.25;5108503;28;20040;-74
2022/07/12 05:01:32;;;;;;;5.20;4.05;;;;;;;15.31;94.41;100966.16;5108564;28;20059;-74
2022/07/12 05:03:58;;;;;;;7.47;4.32;;;;;;;15.37;93.82;100968.13;5108621;28;20540;-75
2022/07/12 05:06:24;;;;;;;5.40;4.30;;;;;;;15.45;93.42;100976.91;5108637;28;20085;-60
2022/07/12 05:08:49;;;;;;;6.20;4.32;;;;;;;15.58;93.09;100970.00;5108262;28;20492;-60
2022/07/12 05:11:15;;;;;;;5.63;3.50;;;;;;;15.68;92.52;100973.28;5108426;28;20063;-60
2022/07/12 05:13:40;;;;;;;4.85;3.30;;;;;;;15.79;91.64;100978.16;5108544;28;20085;-60
2022/07/12 05:16:07;;;;;;;7.35;3.72;;;;;;;15.91;91.23;100968.59;5108412;28;20043;-60
2022/07/12 05:18:33;;;;;;;5.68;3.38;;;;;;;16.00;90.91;100974.66;5108106;28;20109;-60
2022/07/12 05:20:58;;;;;;;4.95;3.40;;;;;;;16.16;89.42;100971.72;5108196;28;20453;-60
2022/07/12 05:23:24;;;;;;;6.10;3.92;;;;;;;16.32;88.85;100981.38;5108383;28;20040;-60
2022/07/12 05:25:50;;;;;;;5.82;3.45;;;;;;;16.33;88.03;100983.06;5108246;28;20036;-60
2022/07/12 05:28:15;;;;;;;7.68;4.25;;;;;;;16.38;88.00;100977.94;5108110;28;20415;-59
2022/07/12 05:30:42;;;;;;;4.78;3.35;;;;;;;16.41;88.36;100984.75;5107947;28;20392;-59
2022/07/12 05:33:07;;;;;;;4.90;3.53;;;;;;;16.43;88.01;100988.94;5099644;28;20032;-60
2022/07/12 05:35:33;;;;;;;5.45;3.42;;;;;;;16.49;87.62;100981.94;5094421;28;20039;-60
2022/07/12 05:37:58;;;;;;;3.38;3.03;;;;;;;16.52;87.27;100985.09;5094443;28;20104;-60
2022/07/12 05:40:24;;;;;;;4.78;2.90;;;;;;;16.59;87.64;100992.38;5094062;28;20043;-60
2022/07/12 05:42:49;;;;;;;4.80;3.17;;;;;;;16.67;87.11;100984.16;5094426;28;20131;-59
2022/07/12 05:45:14;;;;;;;4.97;3.22;;;;;;;16.73;87.13;100991.47;5094242;28;20127;-60
2022/07/12 05:47:40;;;;;;;4.93;3.15;;;;;;;16.81;86.35;100994.84;5094209;28;20044;-60
2022/07/12 05:50:06;;;;;;;6.88;3.15;;;;;;;16.86;86.40;100993.44;5093828;28;20043;-60
2022/07/12 05:53:31;;;;;;;6.03;3.28;;;;;;;16.94;86.00;101002.19;5094108;28;20082;-60
2022/07/12 05:55:25;;;;;;;5.53;3.28;;;;;;;17.03;84.79;101005.56;5084770;28;20506;-60
2022/07/12 05:57:51;;;;;;;5.80;3.33;;;;;;;17.10;85.34;100998.38;5093985;28;20068;-60
2022/07/12 06:00:16;;;;;;;6.25;3.30;;;;;;;17.20;85.35;101000.69;5093726;28;20416;-60
2022/07/12 06:02:42;;;;;;;5.70;3.75;;;;;;;17.28;83.85;101001.38;5093786;28;20066;-60
2022/07/12 06:05:07;;;;;;;3.97;2.80;;;;;;;17.36;83.72;101006.59;5093976;28;20034;-60
2022/07/12 06:07:33;;;;;;;5.00;3.10;;;;;;;17.51;82.71;101006.44;5094034;28;20090;-60
2022/07/12 06:09:58;;;;;;;4.05;2.90;;;;;;;17.63;82.35;101012.94;5093496;28;20036;-60
2022/07/12 06:12:24;;;;;;;6.97;3.63;;;;;;;17.76;81.06;101014.03;5093701;28;20037;-60
2022/07/12 06:14:49;;;;;;;4.25;2.97;;;;;;;17.83;80.99;101018.41;5093782;28;20109;-58
2022/07/12 06:17:14;;;;;;;4.82;2.80;;;;;;;17.84;81.02;101012.00;5093628;28;20499;-60
2022/07/12 06:19:40;;;;;;;7.10;2.92;;;;;;;17.90;81.36;101018.44;5093417;28;20550;-59
2022/07/12 06:22:05;;;;;;;4.07;2.60;;;;;;;17.90;79.40;101019.28;5092191;28;20080;-60
2022/07/12 06:24:31;;;;;;;4.32;3.05;;;;;;;17.94;79.63;101019.72;5093730;28;20051;-59
2022/07/12 06:26:56;;;;;;;6.13;2.85;;;;;;;18.03;79.56;101020.34;5093518;28;20036;-59
2022/07/12 06:29:21;;;;;;;6.80;2.72;;;;;;;18.08;79.74;101016.00;5093188;28;20411;-60
2022/07/12 06:31:47;;;;;;;3.58;3.00;;;;;;;18.15;79.03;101016.03;5093156;28;20074;-60
2022/07/12 06:34:12;;;;;;;3.30;2.38;;;;;;;18.23;78.01;101017.69;5092068;28;20040;-60
2022/07/12 06:36:38;;;;;;;5.03;3.10;;;;;;;18.31;77.78;101014.78;5093358;28;20072;-59
2022/07/12 06:39:03;;;;;;;4.40;2.55;;;;;;;18.33;77.65;101012.75;5093128;28;20400;-60
2022/07/12 06:41:29;;;;;;;4.90;2.15;;;;;;;18.48;77.12;101020.63;5093046;28;20047;-60
2022/07/12 06:43:55;;;;;;;6.43;2.40;;;;;;;18.55;76.06;101022.28;5092559;28;20407;-61
2022/07/12 06:46:20;;;;;;;4.90;2.67;;;;;;;18.69;76.16;101033.94;5092755;28;20122;-60
2022/07/12 06:48:46;;;;;;;4.97;2.60;;;;;;;18.75;75.96;101033.13;5092764;28;20086;-60
2022/07/12 06:51:11;;;;;;;3.03;2.55;;;;;;;18.82;75.60;101033.13;5092986;28;20024;-60
2022/07/12 06:53:37;;;;;;;4.18;2.67;;;;;;;18.92;76.39;101038.94;5093174;28;20395;-60
2022/07/12 06:56:02;;;;;;;3.58;2.30;;;;;;;19.02;74.83;101039.31;5093011;28;20036;-58
2022/07/12 06:58:28;;;;;;;3.85;2.55;;;;;;;19.14;73.16;101040.34;5092606;28;20047;-60
2022/07/12 07:00:53;;;;;;;3.08;2.10;;;;;;;19.17;73.06;101052.59;5092564;28;20040;-60
2022/07/12 07:03:19;;;;;;;4.50;2.38;;;;;;;19.28;72.40;101048.44;5092788;28;20040;-60
2022/07/12 07:05:44;;;;;;;3.05;2.25;;;;;;;19.36;72.71;101057.13;5092772;28;20500;-60
2022/07/12 07:08:10;;;;;;;2.83;2.10;;;;;;;19.45;71.22;101055.06;5092920;28;20507;-60
2022/07/12 07:10:35;;;;;;;4.30;1.70;;;;;;;19.58;69.42;101056.91;5092427;28;20040;-61
2022/07/12 07:13:01;;;;;;;2.55;1.92;;;;;;;19.69;70.01;101054.38;5092780;28;20047;-60
2022/07/12 07:15:26;;;;;;;7.10;2.10;;;;;;;19.74;70.05;101051.03;5092637;28;20047;-59
2022/07/12 07:17:52;;;;;;;2.55;1.80;;;;;;;19.84;70.72;101051.41;5092535;28;20044;-60
2022/07/12 07:20:17;;;;;;;2.00;1.80;;;;;;;20.00;69.34;101059.00;5092138;28;20369;-60
2022/07/12 07:22:43;;;;;;;1.98;1.75;;;;;;;20.08;68.91;101060.63;5092234;28;20024;-60
2022/07/12 07:25:08;;;;;;;2.08;1.40;;;;;;;20.16;67.20;101062.28;5092361;28;20400;-52
2022/07/12 07:27:34;;;;;;;1.52;1.20;;;;;;;20.31;67.18;101063.63;5092438;28;20043;-50
2022/07/12 07:32:44;;;;;;;3.35;1.63;;;;;;;20.44;67.75;101056.47;5092162;28;20035;-51
2022/07/12 07:35:10;;;;;;;3.55;1.70;;;;;;;20.52;65.25;101064.34;5092189;28;20036;-48
2022/07/12 07:37:36;;;;;;;1.83;1.23;;;;;;;20.60;65.71;101058.66;5092203;28;20388;-50
2022/07/12 07:40:02;;;;;;;3.70;1.42;;;;;;;20.73;66.06;101055.88;5092085;28;20517;-50
2022/07/12 07:42:28;;;;;;;2.08;1.30;;;;;;;20.76;63.95;101054.63;5091933;28;20036;-54
2022/07/12 07:44:53;;;;;;;3.35;1.17;;;;;;;20.83;63.73;101052.69;5092020;28;20043;-49
2022/07/12 07:47:19;;;;;;;1.95;1.27;;;;;;;20.90;63.29;101052.63;5092051;28;20040;-53
2022/07/12 07:49:44;;;;;;;4.18;1.38;;;;;;;21.03;62.76;101047.91;5091692;28;20028;-50
2022/07/12 07:52:10;;;;;;;2.65;1.27;;;;;;;21.12;62.48;101051.16;5091809;28;20503;-49
2022/07/12 07:54:35;;;;;;;1.60;0.95;;;;;;;21.19;61.68;101035.69;5091877;28;20042;-54
2022/07/12 07:57:00;;;;;;;2.47;1.33;;;;;;;21.29;61.99;101036.00;5091607;28;20055;-50
2022/07/12 07:59:26;;;;;;;1.77;1.25;;;;;;;21.43;59.31;101044.00;5090184;28;20093;-50
2022/07/12 08:01:54;;;;;;;1.00;0.90;;;;;;;21.49;59.16;101045.81;5091713;28;20127;-46
2022/07/12 08:04:21;;;;;;;1.63;1.00;;;;;;;21.53;57.50;101038.88;5091780;28;20450;-45
2022/07/12 08:06:48;;;;;;;0.90;0.80;;;;;;;21.48;56.97;101041.44;5091766;28;20115;-49
2022/07/12 08:09:14;;;;;;;1.67;0.90;;;;;;;21.60;57.36;101036.94;5091433;28;20101;-54
2022/07/12 08:11:40;;;;;;;0.82;0.68;;;;;;;21.61;57.18;101038.56;5091598;28;20043;-50
2022/07/12 08:14:07;;;;;;;0.80;0.80;;;;;;;21.71;58.19;101047.00;5091512;28;20036;-63
2022/07/12 08:16:33;;;;;;;1.60;1.10;;;;;;;21.76;55.99;101044.44;5091714;28;20059;-63
2022/07/12 08:18:59;;;;;;;1.35;0.95;;;;;;;21.81;55.99;101041.88;5091390;28;20043;-63
2022/07/12 08:21:25;;;;;;;1.35;1.02;;;;;;;21.95;55.70;101040.63;5091534;28;20508;-63
2022/07/12 08:23:50;;;;;;;3.10;1.00;;;;;;;22.03;55.77;101052.22;5091646;28;20044;-63
2022/07/12 08:26:16;;;;;;;1.63;1.17;;;;;;;22.12;56.95;101050.88;5091504;28;20067;-63
2022/07/12 08:28:42;;;;;;;0.90;0.80;;;;;;;22.26;55.67;101048.81;5091253;28;20089;-62
2022/07/12 08:31:08;;;;;;;2.75;1.00;;;;;;;22.28;55.82;101049.41;5091212;28;20036;-63
2022/07/12 08:33:34;;;;;;;3.08;1.25;;;;;;;22.40;56.64;101058.41;5091514;28;20032;-63
2022/07/12 08:35:59;;;;;;;1.98;0.93;;;;;;;22.63;55.86;101055.75;5091521;28;20040;-63
2022/07/12 08:38:24;;;;;;;1.52;0.90;;;;;;;22.71;52.51;101052.69;5091187;28;20052;-63
2022/07/12 08:40:50;;;;;;;1.50;1.00;;;;;;;22.82;52.91;101048.34;5091302;28;20040;-63
2022/07/12 08:43:15;;;;;;;1.55;0.80;;;;;;;22.83;51.47;101049.19;5091314;28;20511;-63
2022/07/12 08:45:41;;;;;;;1.33;0.75;;;;;;;23.08;51.23;101054.41;5091347;28;20066;-63
2022/07/12 08:48:07;;;;;;;1.27;0.95;;;;;;;23.24;49.81;101053.69;5091382;28;20123;-62
2022/07/12 08:50:33;;;;;;;0.70;0.70;;;;;;;23.34;49.78;101043.03;5091177;28;20071;-63
2022/07/12 08:52:58;;;;;;;1.48;0.98;;;;;;;23.29;48.66;101041.06;5091126;28;20075;-62
2022/07/12 08:55:31;;;;;;;1.02;0.80;;;;;;;23.47;49.93;101042.81;5091269;28;20085;-63
2022/07/12 08:57:59;;;;;;;0.80;0.70;;;;;;;23.52;49.54;101045.59;5091158;28;20442;-63
2022/07/12 09:00:27;;;;;;;0.90;0.80;;;;;;;23.76;49.88;101049.13;5090786;28;20032;-63
2022/07/12 09:02:57;;;;;;;0.98;0.50;;;;;;;23.84;47.10;101045.22;5091419;28;20377;-63
2022/07/12 09:05:25;;;;;;;2.28;1.02;;;;;;;24.05;49.01;101044.53;5091117;28;20028;-61
2022/07/12 09:08:00;;;;;;;2.15;0.73;;;;;;;24.30;47.04;101055.06;5092546;28;20373;-63
2022/07/12 09:10:26;;;;;;;0.73;0.60;;;;;;;24.00;45.27;101049.91;5094786;28;20051;-63
2022/07/12 09:12:51;;;;;;;0.60;0.60;;;;;;;24.09;46.58;101055.75;5094843;28;20578;-63
2022/07/12 09:15:22;;;;;;;1.02;0.80;;;;;;;24.20;45.51;101052.19;5094698;28;20047;-62
2022/07/12 09:17:53;;;;;;;1.52;0.70;;;;;;;24.38;45.59;101056.59;5094878;28;20036;-62
2022/07/12 09:20:18;;;;;;;0.68;0.68;;;;;;;24.46;45.22;101058.13;5094539;28;20036;-63
2022/07/12 09:22:59;;;;;;;1.00;0.75;;;;;;;24.60;45.35;101060.25;5094599;28;20040;-63
2022/07/12 09:25:25;;;;;;;1.70;0.70;;;;;;;24.80;44.97;101058.94;5094698;28;20063;-63
2022/07/12 09:27:52;;;;;;;0.57;0.57;;;;;;;24.89;46.09;101057.44;5094600;28;20071;-61
2022/07/12 09:30:19;;;;;;;1.98;0.73;;;;;;;24.61;44.87;101059.19;5094337;28;20039;-62
2022/07/12 09:38:34;;;;;;;0.75;0.60;;;;;;;25.02;44.12;101056.28;5070839;28;20146;-63
2022/07/12 09:41:00;;;;;;;0.82;0.80;;;;;;;25.09;45.00;101051.50;5094287;28;20401;-63
2022/07/12 09:43:27;;;;;;;1.42;1.05;;;;;;;25.19;44.30;101051.69;5094193;28;20032;-62
2022/07/12 09:45:53;;;;;;;0.98;0.80;;;;;;;25.25;43.48;101047.94;5094261;28;20046;-61
2022/07/12 09:48:22;;;;;;;0.50;0.50;;;;;;;25.53;44.51;101041.50;5094083;28;20032;-63
2022/07/12 09:50:51;;;;;;;1.65;0.82;;;;;;;25.84;44.54;101047.38;5094566;28;20016;-63
2022/07/12 09:53:47;;;;;;;0.63;0.47;;;;;;;26.09;42.72;101053.13;5092838;28;20273;-63
2022/07/12 09:56:15;;;;;;;0.50;0.50;;;;;;;25.71;42.13;101045.81;5088803;28;20044;-63
2022/07/12 09:58:59;;;;;;;1.73;0.60;;;;;;;25.67;43.03;101034.59;5093817;28;20032;-63
2022/07/12 10:01:25;;;;;;;2.78;0.70;;;;;;;26.05;42.55;101042.97;5093822;28;20043;-63
2022/07/12 10:03:52;;;;;;;1.15;0.63;;;;;;;26.01;42.44;101050.00;5093994;28;20032;-63
2022/07/12 10:06:25;;;;;;;2.30;0.77;;;;;;;26.44;41.90;101043.66;5093824;28;20397;-63
2022/07/12 10:08:51;;;;;;;1.67;0.60;;;;;;;26.75;42.41;101044.72;5093668;28;20062;-63
2022/07/12 10:11:18;;;;;;;1.05;0.60;;;;;;;27.02;40.92;101045.47;5093731;28;20020;-62
2022/07/12 10:13:44;;;;;;;0.95;0.60;;;;;;;26.88;40.42;101043.47;5093787;28;20043;-63
2022/07/12 10:16:13;;;;;;;0.47;0.47;;;;;;;26.86;40.92;101051.09;5094092;28;20040;-63
2022/07/12 10:18:38;;;;;;;4.25;0.90;;;;;;;26.93;41.85;101048.94;5093426;28;20043;-63
2022/07/12 10:21:19;;;;;;;0.50;0.40;;;;;;;27.47;41.00;101046.84;5093403;28;20043;-63
2022/07/12 10:23:44;;;;;;;0.50;0.40;;;;;;;27.82;38.72;101048.13;5093658;28;20048;-63
2022/07/12 10:26:19;;;;;;;0.50;0.50;;;;;;;27.16;38.11;101040.41;5093167;28;20032;-63
2022/07/12 10:29:02;;;;;;;0.60;0.50;;;;;;;27.93;39.76;101041.59;5091906;28;20109;-63
2022/07/12 10:31:39;;;;;;;1.15;0.60;;;;;;;27.94;39.15;101040.50;5099504;22;20051;-62
2022/07/12 10:34:19;;;;;;;1.25;0.80;;;;;;;28.34;39.84;101041.69;5093395;28;20396;-62
2022/07/12 10:36:56;;;;;;;2.00;0.60;;;;;;;27.47;38.52;101035.09;5093322;28;20441;-62
2022/07/12 10:39:22;;;;;;;0.50;0.50;;;;;;;27.98;39.31;101035.31;5092952;28;20051;-62
2022/07/12 10:42:08;;;;;;;0.63;0.55;;;;;;;28.02;39.79;101039.13;5093117;28;20490;-62
2022/07/12 10:44:40;;;;;;;0.68;0.50;;;;;;;28.67;39.03;101037.59;5082308;28;20047;-62
2022/07/12 10:47:08;;;;;;;0.65;0.65;;;;;;;28.44;37.52;101043.63;5093352;28;20032;-62
2022/07/12 10:49:35;;;;;;;0.60;0.60;;;;;;;29.00;37.68;101040.88;5092735;28;20489;-62
2022/07/12 10:52:10;;;;;;;1.02;0.57;;;;;;;29.36;36.52;101033.38;5092891;28;20040;-64
2022/07/12 10:54:40;;;;;;;1.08;0.88;;;;;;;29.78;36.74;101035.69;5092946;28;20036;-62
2022/07/12 10:57:06;;;;;;;0.73;0.50;;;;;;;29.78;36.46;101034.88;5092989;28;20048;-62
2022/07/12 10:59:34;;;;;;;1.85;0.90;;;;;;;30.15;34.81;101028.94;5092686;28;20039;-62
2022/07/12 11:02:00;;;;;;;0.77;0.45;;;;;;;29.93;34.46;101024.66;5092782;28;20056;-62
2022/07/12 11:04:29;;;;;;;0.40;0.40;;;;;;;29.71;34.27;101033.25;5092774;28;20071;-62
2022/07/12 11:06:56;;;;;;;0.63;0.52;;;;;;;29.78;34.59;101029.38;5092653;28;20492;-62
2022/07/12 11:09:23;;;;;;;1.00;0.63;;;;;;;30.25;34.41;101023.34;5092386;28;20067;-63
2022/07/12 11:11:50;;;;;;;0.47;0.47;;;;;;;30.77;33.85;101014.41;5092615;28;20089;-63
2022/07/12 11:14:22;;;;;;;0.70;0.50;;;;;;;30.65;34.83;101021.41;5092706;28;20028;-62
2022/07/12 11:16:49;;;;;;;0.50;0.50;;;;;;;30.58;32.95;101026.38;5092451;28;20047;-62
2022/07/12 11:19:15;;;;;;;;;;;;;;;30.64;33.76;101023.31;5092655;28;20655;-62
2022/07/12 11:21:48;;;;;;;0.30;0.30;;;;;;;30.60;32.97;101024.19;5092405;28;19934;-62
2022/07/12 11:24:17;;;;;;;0.55;0.45;;;;;;;30.35;32.45;101017.78;5092487;28;20058;-63
2022/07/12 11:26:43;;;;;;;0.60;0.50;;;;;;;30.76;34.42;101020.22;5092662;28;20032;-62
2022/07/12 11:29:09;;;;;;;0.20;0.20;;;;;;;31.10;31.60;101022.06;5092110;28;20036;-62
2022/07/12 11:31:35;;;;;;;0.40;0.38;;;;;;;31.06;32.70;101028.16;5091633;28;20559;-63
2022/07/12 11:34:00;;;;;;;0.60;0.50;;;;;;;31.24;30.98;101029.38;5092348;28;20048;-62
2022/07/12 11:36:27;;;;;;;0.60;0.33;;;;;;;31.44;31.02;101016.50;5092166;28;20043;-62
2022/07/12 11:38:53;;;;;;;0.80;0.57;;;;;;;31.59;29.78;101008.84;5091859;28;20032;-62
2022/07/12 11:41:19;;;;;;;1.17;0.60;;;;;;;31.56;31.12;101014.94;5092118;28;20508;-62
2022/07/12 11:43:45;;;;;;;0.85;0.45;;;;;;;31.71;30.83;101007.59;5092137;28;20083;-61
2022/07/12 11:46:10;;;;;;;0.50;0.40;;;;;;;32.03;29.50;101004.13;5092160;28;20068;-62
2022/07/12 11:48:37;;;;;;;0.47;0.33;;;;;;;31.74;31.10;101001.47;5091682;28;20039;-63
2022/07/12 11:51:05;;;;;;;0.22;0.20;;;;;;;32.07;30.13;101000.47;5091842;28;20070;-62
2022/07/12 11:53:32;;;;;;;1.40;0.50;;;;;;;32.56;29.44;101004.69;5091886;28;20095;-63
2022/07/12 11:55:59;;;;;;;0.88;0.45;;;;;;;32.72;29.30;101012.66;5091925;28;20024;-63
2022/07/12 11:58:26;;;;;;;1.38;0.52;;;;;;;32.75;29.31;101017.59;5091678;28;20043;-63
2022/07/12 12:00:52;;;;;;;0.88;0.40;;;;;;;31.93;30.29;101007.03;5091733;28;20062;-63
2022/07/12 12:03:19;;;;;;;0.30;0.30;;;;;;;32.22;29.45;101009.63;5091745;28;20028;-63
2022/07/12 12:05:50;;;;;;;0.20;0.20;;;;;;;32.83;29.36;101008.59;5091823;28;20117;-63
2022/07/12 12:08:17;;;;;;;0.68;0.30;;;;;;;32.46;28.64;101004.84;5091606;28;20697;-63
2022/07/12 12:10:52;;;;;;;0.40;0.40;;;;;;;32.61;28.67;100995.50;5091490;28;20036;-63
2022/07/12 12:13:18;;;;;;;0.20;0.20;;;;;;;32.79;27.81;100991.03;5091704;28;20428;-63
2022/07/12 12:15:55;;;;;;;0.27;0.27;;;;;;;32.80;29.07;100995.41;5091710;28;20044;-63
2022/07/12 12:18:41;;;;;;;0.22;0.22;;;;;;;33.27;28.02;100996.22;5091605;28;20051;-62
2022/07/12 12:21:11;;;;;;;0.30;0.22;;;;;;;32.69;28.88;100986.53;5091625;28;20481;-63
2022/07/12 12:23:39;;;;;;;0.38;0.30;;;;;;;33.07;28.54;100989.97;5091492;28;20055;-63
2022/07/12 12:26:23;;;;;;;0.57;0.40;;;;;;;33.08;28.63;100986.09;5091530;28;20036;-63
2022/07/12 12:28:53;;;;;;;1.98;0.20;;;;;;;33.08;28.08;100988.84;5091249;28;20036;-63
2022/07/12 12:31:23;;;;;;;0.30;0.30;;;;;;;33.24;27.92;100974.72;5073349;28;20123;-63
2022/07/12 12:33:51;;;;;;;1.05;0.40;;;;;;;33.18;28.40;100968.50;5091427;28;20127;-63
2022/07/12 12:36:18;;;;;;;0.20;0.20;;;;;;;32.71;28.87;100969.66;5073599;28;20382;-63
2022/07/12 12:38:45;;;;;;;1.75;0.40;;;;;;;32.78;27.94;100973.66;5091342;28;20032;-63
2022/07/12 12:41:12;;;;;;;0.65;0.35;;;;;;;32.39;28.18;100979.59;5091313;28;20037;-61
2022/07/12 12:43:38;;;;;;;1.33;0.30;;;;;;;33.02;28.10;100968.00;5093878;28;20489;-63
2022/07/12 12:46:04;;;;;;;0.20;0.20;;;;;;;33.00;28.31;100967.50;5095531;28;20032;-63
2022/07/12 12:48:31;;;;;;;1.30;0.30;;;;;;;33.18;27.54;100968.50;5095153;28;20062;-63
2022/07/12 12:51:10;;;;;;;0.40;0.40;;;;;;;33.28;28.70;100964.72;5095209;28;20032;-62
2022/07/12 12:53:41;;;;;;;0.35;0.30;;;;;;;33.71;27.73;100960.47;5095216;28;20044;-63
2022/07/12 12:56:11;;;;;;;0.50;0.50;;;;;;;33.42;29.09;100960.84;5095235;28;20032;-63
2022/07/12 12:58:37;;;;;;;0.50;0.30;;;;;;;33.38;27.30;100958.97;5094959;28;20039;-63
2022/07/12 13:01:04;;;;;;;0.40;0.40;;;;;;;33.69;28.42;100959.94;5095096;28;20036;-63
2022/07/12 13:03:30;;;;;;;0.45;0.45;;;;;;;33.74;26.26;100961.78;5095056;28;20473;-63
2022/07/12 13:05:57;;;;;;;0.20;0.20;;;;;;;33.18;26.68;100961.03;5095094;28;20096;-63
2022/07/12 13:08:23;;;;;;;1.13;0.22;;;;;;;32.72;27.33;100972.13;5094776;28;20050;-62
2022/07/12 13:11:18;;;;;;;0.53;0.30;;;;;;;33.15;27.06;100958.91;5076822;28;20028;-63
2022/07/12 13:13:36;;;;;;;2.20;0.30;;;;;;;33.45;26.66;100954.72;5094900;28;20055;-63
2022/07/12 13:16:01;;;;;;;1.27;0.40;;;;;;;33.42;27.43;100955.31;5094875;28;20036;-63
2022/07/12 13:18:27;;;;;;;2.67;0.30;;;;;;;33.19;26.86;100950.81;5094528;28;20036;-63
2022/07/12 13:20:52;;;;;;;0.70;0.50;;;;;;;32.54;28.13;100956.44;5094743;28;20028;-63
2022/07/12 13:23:18;;;;;;;0.23;0.23;;;;;;;31.23;30.11;100953.41;5094838;28;20036;-63
2022/07/12 13:25:43;;;;;;;0.40;0.40;;;;;;;31.24;30.68;100948.78;5094767;28;20077;-63
2022/07/12 13:28:10;;;;;;;1.30;0.50;;;;;;;31.52;30.37;100953.34;5094659;28;20390;-61
2022/07/12 13:30:35;;;;;;;0.73;0.38;;;;;;;31.19;29.44;100946.84;5094323;28;20043;-63
2022/07/12 13:33:01;;;;;;;1.13;0.20;;;;;;;30.92;30.95;100944.72;5094503;28;20048;-63
2022/07/12 13:35:29;;;;;;;2.83;0.43;;;;;;;30.95;30.92;100954.28;5094421;28;20035;-63
2022/07/12 13:37:55;;;;;;;0.55;0.40;;;;;;;30.65;31.32;100947.19;5094457;28;20044;-63
2022/07/12 13:40:22;;;;;;;0.40;0.40;;;;;;;30.31;32.28;100955.44;5094130;28;20031;-63
2022/07/12 13:42:48;;;;;;;;;;;;;;;29.76;32.76;100954.72;5094795;28;20028;-63
2022/07/12 13:45:16;;;;;;;0.63;0.32;;;;;;;29.98;32.64;100963.34;5094251;28;19916;-60
2022/07/12 13:47:43;;;;;;;0.40;0.40;;;;;;;29.76;32.95;100955.56;5094300;28;20036;-62
2022/07/12 13:50:10;;;;;;;0.30;0.30;;;;;;;29.27;31.54;100948.09;5093911;28;20039;-62
2022/07/12 13:52:36;;;;;;;1.02;0.60;;;;;;;29.55;33.83;100943.88;5094125;28;20119;-63
2022/07/12 13:55:02;;;;;;;1.05;0.50;;;;;;;29.31;32.76;100945.63;5093818;28;20136;-63
2022/07/12 13:57:28;;;;;;;0.47;0.47;;;;;;;29.18;33.63;100947.84;5094176;28;20035;-62
2022/07/12 13:59:53;;;;;;;1.35;0.50;;;;;;;29.16;32.15;100949.25;5093811;28;20035;-63
2022/07/12 14:02:19;;;;;;;1.20;0.50;;;;;;;28.76;33.18;100950.16;5094069;28;20122;-63
2022/07/12 14:04:45;;;;;;;0.93;0.65;;;;;;;28.66;33.40;100945.50;5094018;28;20063;-63
2022/07/12 14:07:11;;;;;;;0.68;0.50;;;;;;;28.91;33.42;100948.22;5094049;28;20067;-63
2022/07/12 14:09:37;;;;;;;0.40;0.40;;;;;;;28.89;33.82;100938.63;5093731;28;20032;-63
2022/07/12 14:12:03;;;;;;;0.40;0.40;;;;;;;28.99;33.43;100946.81;5093799;28;20064;-63
2022/07/12 14:17:15;;;;;;;0.70;0.50;;;;;;;28.80;33.33;100935.59;5093879;28;20040;-63
2022/07/12 14:19:40;;;;;;;1.65;0.68;;;;;;;28.70;33.46;100935.66;5093393;28;20396;-63
2022/07/12 14:22:06;;;;;;;1.48;0.88;;;;;;;28.45;32.98;100941.97;5093620;28;20115;-63
2022/07/12 14:24:31;;;;;;;0.40;0.40;;;;;;;28.43;32.54;100946.06;5093635;28;20048;-63
2022/07/12 14:26:57;;;;;;;1.25;0.32;;;;;;;28.31;32.95;100940.91;5075325;28;20036;-63
2022/07/12 14:29:22;;;;;;;0.90;0.50;;;;;;;28.44;34.19;100934.88;5093272;28;20068;-63
2022/07/12 14:31:49;;;;;;;1.85;0.40;;;;;;;28.43;34.35;100935.13;5093151;28;20028;-63
2022/07/12 14:34:15;;;;;;;1.17;0.60;;;;;;;28.55;33.60;100931.00;5093422;28;20071;-63
2022/07/12 14:36:40;;;;;;;2.40;0.70;;;;;;;28.48;32.71;100924.16;5093376;28;20064;-63
2022/07/12 14:39:06;;;;;;;0.60;0.47;;;;;;;28.49;33.70;100925.78;5093081;28;20493;-63
2022/07/12 14:41:31;;;;;;;0.50;0.50;;;;;;;28.50;34.50;100933.75;5093234;28;20028;-63
2022/07/12 14:43:56;;;;;;;0.50;0.50;;;;;;;28.24;34.15;100932.09;5093276;28;20051;-63
2022/07/12 14:46:22;;;;;;;1.35;0.40;;;;;;;28.37;33.86;100921.44;5093337;28;20035;-63
2022/07/12 14:48:47;;;;;;;0.75;0.57;;;;;;;28.51;33.65;100916.22;5092863;28;20497;-63
2022/07/12 14:51:13;;;;;;;0.50;0.50;;;;;;;28.30;33.14;100926.34;5093057;28;20032;-62
2022/07/12 14:53:38;;;;;;;1.92;0.57;;;;;;;28.14;33.94;100913.75;5093184;28;20065;-62
2022/07/12 14:56:04;;;;;;;2.25;0.60;;;;;;;28.07;33.84;100913.19;5093037;28;20519;-62
2022/07/12 14:58:29;;;;;;;0.52;0.50;;;;;;;28.17;34.71;100912.38;5092608;28;20074;-60
2022/07/12 15:00:58;;;;;;;1.08;0.55;;;;;;;28.02;33.53;100910.47;5092958;28;20047;-62
2022/07/12 15:03:24;;;;;;;0.70;0.70;;;;;;;28.19;34.15;100916.50;5092829;28;20047;-62
2022/07/12 15:05:49;;;;;;;1.75;0.60;;;;;;;28.08;34.26;100912.09;5092057;28;20028;-62
2022/07/12 15:08:15;;;;;;;2.17;0.77;;;;;;;28.15;33.57;100906.34;5092721;28;20491;-61
2022/07/12 15:10:40;;;;;;;0.60;0.52;;;;;;;28.15;34.49;100918.13;5092477;28;20039;-62
2022/07/12 15:13:06;;;;;;;0.50;0.50;;;;;;;28.10;35.83;100912.63;5074527;28;20516;-62
2022/07/12 15:15:33;;;;;;;1.10;0.50;;;;;;;28.19;34.39;100915.66;5092710;28;20062;-59
2022/07/12 15:17:58;;;;;;;;;;;;;;;28.12;34.49;100910.47;5093066;28;20453;-61
2022/07/12 15:20:23;;;;;;;0.67;0.40;;;;;;;28.16;34.10;100910.72;5092457;28;19955;-63
2022/07/12 15:22:49;;;;;;;0.50;0.50;;;;;;;28.10;33.56;100907.16;5074484;28;20117;-62
2022/07/12 15:25:14;;;;;;;0.38;0.38;;;;;;;28.15;34.23;100903.63;5092859;28;20424;-62
2022/07/12 15:27:40;;;;;;;0.82;0.60;;;;;;;28.16;34.42;100900.59;5074501;28;20396;-63
2022/07/12 15:30:06;;;;;;;1.20;0.40;;;;;;;28.06;33.68;100895.97;5092252;28;20040;-62
2022/07/12 15:32:31;;;;;;;0.50;0.50;;;;;;;28.03;34.17;100901.13;5092182;28;20044;-62
2022/07/12 15:34:57;;;;;;;1.80;0.80;;;;;;;28.06;34.65;100900.63;5092310;28;20531;-62
2022/07/12 15:37:22;;;;;;;0.80;0.73;;;;;;;28.00;33.90;100896.22;5092278;28;20074;-62
2022/07/12 15:39:48;;;;;;;2.83;1.10;;;;;;;27.98;33.95;100899.25;5091952;28;20072;-63
2022/07/12 15:42:14;;;;;;;2.55;1.95;;;;;;;28.06;34.47;100895.97;5092168;28;20056;-63
2022/07/12 15:44:39;;;;;;;2.38;0.95;;;;;;;28.01;33.34;100892.38;5092374;28;20504;-63
2022/07/12 15:47:05;;;;;;;2.30;1.25;;;;;;;28.03;33.40;100896.47;5092230;28;20119;-63
2022/07/12 15:49:31;;;;;;;4.18;0.70;;;;;;;28.11;34.24;100892.41;5091843;28;20048;-62
2022/07/12 15:54:41;;;;;;;4.10;3.08;;;;;;;28.08;33.24;100877.31;5092041;28;20048;-63
2022/07/12 15:57:07;;;;;;;3.30;2.20;;;;;;;28.06;33.39;100887.75;5091999;28;20437;-63
2022/07/12 15:59:32;;;;;;;1.63;0.98;;;;;;;28.14;33.55;100894.56;5091679;28;20082;-63
2022/07/12 16:01:58;;;;;;;4.10;2.05;;;;;;;27.90;34.19;100890.72;5091713;28;20036;-63